sensor_id;sensor_type;location;lat;lon;timestamp;P1;durP1;ratioP1;P2;durP2;ratioP2
2888;SDS011;1453;42.708;23.282;2023-03-07T00:01:20;9.80;;;7.22;;
2888;SDS011;1453;42.708;23.282;2023-03-07T00:03:51;12.33;;;8.83;;
2888;SDS011;1453;42.708;23.282;2023-03-07T00:06:17;16.20;;;7.13;;
2888;SDS011;1453;42.708;23.282;2023-03-07T00:08:47;11.98;;;7.70;;
2888;SDS011;1453;42.708;23.282;2023-03-07T00:11:18;8.23;;;6.57;;
2888;SDS011;1453;42.708;23.282;2023-03-07T00:13:44;13.53;;;7.57;;
2888;SDS011;1453;42.708;23.282;2023-03-07T00:16:11;11.83;;;7.80;;
2888;SDS011;1453;42.708;23.282;2023-03-07T00:18:40;12.33;;;7.73;;
2888;SDS011;1453;42.708;23.282;2023-03-07T00:21:08;10.03;;;7.20;;
2888;SDS011;1453;42.708;23.282;2023-03-07T00:23:37;12.13;;;7.33;;
2888;SDS011;1453;42.708;23.282;2023-03-07T00:26:26;15.55;;;8.68;;
2888;SDS011;1453;42.708;23.282;2023-03-07T00:28:52;12.68;;;8.00;;
2888;SDS011;1453;42.708;23.282;2023-03-07T00:31:19;12.10;;;8.48;;
2888;SDS011;1453;42.708;23.282;2023-03-07T00:33:46;15.53;;;9.77;;
2888;SDS011;1453;42.708;23.282;2023-03-07T00:36:13;14.37;;;9.47;;
2888;SDS011;1453;42.708;23.282;2023-03-07T00:38:45;15.02;;;8.80;;
2888;SDS011;1453;42.708;23.282;2023-03-07T00:41:12;15.10;;;9.20;;
2888;SDS011;1453;42.708;23.282;2023-03-07T00:43:41;15.52;;;8.98;;
2888;SDS011;1453;42.708;23.282;2023-03-07T00:46:08;17.55;;;9.40;;
2888;SDS011;1453;42.708;23.282;2023-03-07T00:48:35;13.73;;;8.43;;
2888;SDS011;1453;42.708;23.282;2023-03-07T00:51:03;14.05;;;8.50;;
2888;SDS011;1453;42.708;23.282;2023-03-07T00:53:31;16.50;;;8.90;;
2888;SDS011;1453;42.708;23.282;2023-03-07T00:55:59;17.63;;;9.80;;
2888;SDS011;1453;42.708;23.282;2023-03-07T00:58:31;12.98;;;8.68;;
2888;SDS011;1453;42.708;23.282;2023-03-07T01:01:01;12.27;;;8.00;;
2888;SDS011;1453;42.708;23.282;2023-03-07T01:03:29;15.75;;;8.60;;
2888;SDS011;1453;42.708;23.282;2023-03-07T01:05:56;17.10;;;9.55;;
2888;SDS011;1453;42.708;23.282;2023-03-07T01:08:26;23.05;;;11.18;;
2888;SDS011;1453;42.708;23.282;2023-03-07T01:10:56;19.53;;;11.97;;
2888;SDS011;1453;42.708;23.282;2023-03-07T01:13:24;22.40;;;12.77;;
2888;SDS011;1453;42.708;23.282;2023-03-07T01:15:50;23.85;;;12.27;;
2888;SDS011;1453;42.708;23.282;2023-03-07T01:18:16;18.93;;;10.60;;
2888;SDS011;1453;42.708;23.282;2023-03-07T01:20:42;29.17;;;11.53;;
2888;SDS011;1453;42.708;23.282;2023-03-07T01:23:08;16.17;;;10.70;;
2888;SDS011;1453;42.708;23.282;2023-03-07T01:25:37;17.73;;;10.30;;
2888;SDS011;1453;42.708;23.282;2023-03-07T01:28:05;15.68;;;9.13;;
2888;SDS011;1453;42.708;23.282;2023-03-07T01:30:32;16.83;;;9.88;;
2888;SDS011;1453;42.708;23.282;2023-03-07T01:32:58;16.88;;;10.48;;
2888;SDS011;1453;42.708;23.282;2023-03-07T01:35:27;24.35;;;11.77;;
2888;SDS011;1453;42.708;23.282;2023-03-07T01:37:54;17.85;;;10.15;;
2888;SDS011;1453;42.708;23.282;2023-03-07T01:40:20;24.50;;;11.45;;
2888;SDS011;1453;42.708;23.282;2023-03-07T01:42:48;17.92;;;10.90;;
2888;SDS011;1453;42.708;23.282;2023-03-07T01:47:40;19.30;;;10.53;;
2888;SDS011;1453;42.708;23.282;2023-03-07T01:50:08;18.67;;;10.65;;
2888;SDS011;1453;42.708;23.282;2023-03-07T01:52:51;16.92;;;11.05;;
2888;SDS011;1453;42.708;23.282;2023-03-07T01:55:27;18.05;;;10.57;;
2888;SDS011;1453;42.708;23.282;2023-03-07T01:57:59;18.95;;;11.45;;
2888;SDS011;1453;42.708;23.282;2023-03-07T02:00:32;19.20;;;11.63;;
2888;SDS011;1453;42.708;23.282;2023-03-07T02:05:36;16.15;;;10.68;;
2888;SDS011;1453;42.708;23.282;2023-03-07T02:08:25;15.88;;;11.57;;
2888;SDS011;1453;42.708;23.282;2023-03-07T02:10:54;17.15;;;9.80;;
2888;SDS011;1453;42.708;23.282;2023-03-07T02:13:20;13.43;;;9.13;;
2888;SDS011;1453;42.708;23.282;2023-03-07T02:15:46;15.33;;;9.67;;
2888;SDS011;1453;42.708;23.282;2023-03-07T02:18:15;15.35;;;8.38;;
2888;SDS011;1453;42.708;23.282;2023-03-07T02:20:47;20.20;;;10.23;;
2888;SDS011;1453;42.708;23.282;2023-03-07T02:28:55;16.05;;;9.05;;
2888;SDS011;1453;42.708;23.282;2023-03-07T02:31:23;14.30;;;9.40;;
2888;SDS011;1453;42.708;23.282;2023-03-07T02:33:49;15.93;;;9.13;;
2888;SDS011;1453;42.708;23.282;2023-03-07T02:36:16;15.30;;;9.37;;
2888;SDS011;1453;42.708;23.282;2023-03-07T02:38:47;15.85;;;9.52;;
2888;SDS011;1453;42.708;23.282;2023-03-07T02:41:16;13.15;;;9.05;;
2888;SDS011;1453;42.708;23.282;2023-03-07T02:43:45;19.52;;;11.15;;
2888;SDS011;1453;42.708;23.282;2023-03-07T02:46:11;16.63;;;10.80;;
2888;SDS011;1453;42.708;23.282;2023-03-07T02:48:37;15.00;;;10.37;;
2888;SDS011;1453;42.708;23.282;2023-03-07T02:51:03;22.37;;;11.30;;
2888;SDS011;1453;42.708;23.282;2023-03-07T02:53:29;17.60;;;11.10;;
2888;SDS011;1453;42.708;23.282;2023-03-07T02:55:54;15.37;;;9.70;;
2888;SDS011;1453;42.708;23.282;2023-03-07T02:58:20;15.40;;;10.70;;
2888;SDS011;1453;42.708;23.282;2023-03-07T03:00:46;17.23;;;10.40;;
2888;SDS011;1453;42.708;23.282;2023-03-07T03:03:12;15.63;;;10.55;;
2888;SDS011;1453;42.708;23.282;2023-03-07T03:05:38;15.10;;;11.20;;
2888;SDS011;1453;42.708;23.282;2023-03-07T03:08:04;14.13;;;10.60;;
2888;SDS011;1453;42.708;23.282;2023-03-07T03:10:30;17.00;;;11.13;;
2888;SDS011;1453;42.708;23.282;2023-03-07T03:12:56;16.30;;;10.05;;
2888;SDS011;1453;42.708;23.282;2023-03-07T03:15:22;14.23;;;10.30;;
2888;SDS011;1453;42.708;23.282;2023-03-07T03:17:48;17.23;;;10.70;;
2888;SDS011;1453;42.708;23.282;2023-03-07T03:20:13;14.83;;;9.67;;
2888;SDS011;1453;42.708;23.282;2023-03-07T03:22:41;19.55;;;11.32;;
2888;SDS011;1453;42.708;23.282;2023-03-07T03:25:07;16.67;;;10.68;;
2888;SDS011;1453;42.708;23.282;2023-03-07T03:27:36;18.48;;;11.05;;
2888;SDS011;1453;42.708;23.282;2023-03-07T03:30:03;16.73;;;10.00;;
2888;SDS011;1453;42.708;23.282;2023-03-07T03:32:31;20.42;;;12.32;;
2888;SDS011;1453;42.708;23.282;2023-03-07T03:34:57;20.70;;;10.48;;
2888;SDS011;1453;42.708;23.282;2023-03-07T03:37:23;19.95;;;10.63;;
2888;SDS011;1453;42.708;23.282;2023-03-07T03:39:54;17.42;;;10.27;;
2888;SDS011;1453;42.708;23.282;2023-03-07T03:42:19;16.60;;;10.15;;
2888;SDS011;1453;42.708;23.282;2023-03-07T03:44:45;14.77;;;9.13;;
2888;SDS011;1453;42.708;23.282;2023-03-07T03:47:11;16.53;;;10.63;;
2888;SDS011;1453;42.708;23.282;2023-03-07T03:49:37;19.37;;;10.77;;
2888;SDS011;1453;42.708;23.282;2023-03-07T03:52:03;21.30;;;10.43;;
2888;SDS011;1453;42.708;23.282;2023-03-07T03:54:29;21.83;;;11.70;;
2888;SDS011;1453;42.708;23.282;2023-03-07T03:56:55;16.50;;;9.93;;
2888;SDS011;1453;42.708;23.282;2023-03-07T03:59:21;17.50;;;10.55;;
2888;SDS011;1453;42.708;23.282;2023-03-07T04:01:47;13.02;;;8.95;;
2888;SDS011;1453;42.708;23.282;2023-03-07T04:04:13;20.03;;;10.70;;
2888;SDS011;1453;42.708;23.282;2023-03-07T04:06:39;15.30;;;10.55;;
2888;SDS011;1453;42.708;23.282;2023-03-07T04:09:06;18.15;;;10.52;;
2888;SDS011;1453;42.708;23.282;2023-03-07T04:11:34;15.88;;;10.52;;
2888;SDS011;1453;42.708;23.282;2023-03-07T04:14:01;18.48;;;10.00;;
2888;SDS011;1453;42.708;23.282;2023-03-07T04:16:26;17.25;;;9.95;;
2888;SDS011;1453;42.708;23.282;2023-03-07T04:18:52;16.57;;;10.10;;
2888;SDS011;1453;42.708;23.282;2023-03-07T04:21:19;20.17;;;11.50;;
2888;SDS011;1453;42.708;23.282;2023-03-07T04:23:46;15.07;;;9.40;;
2888;SDS011;1453;42.708;23.282;2023-03-07T04:26:19;14.70;;;9.93;;
2888;SDS011;1453;42.708;23.282;2023-03-07T04:28:45;17.67;;;11.20;;
2888;SDS011;1453;42.708;23.282;2023-03-07T04:31:14;23.38;;;9.75;;
2888;SDS011;1453;42.708;23.282;2023-03-07T04:33:43;16.98;;;10.45;;
2888;SDS011;1453;42.708;23.282;2023-03-07T04:36:10;17.50;;;10.48;;
2888;SDS011;1453;42.708;23.282;2023-03-07T04:38:36;20.83;;;11.35;;
2888;SDS011;1453;42.708;23.282;2023-03-07T04:41:03;20.42;;;11.20;;
2888;SDS011;1453;42.708;23.282;2023-03-07T04:43:30;19.08;;;11.00;;
2888;SDS011;1453;42.708;23.282;2023-03-07T04:45:56;22.50;;;10.27;;
2888;SDS011;1453;42.708;23.282;2023-03-07T04:48:22;19.23;;;10.50;;
2888;SDS011;1453;42.708;23.282;2023-03-07T04:50:49;20.13;;;11.33;;
2888;SDS011;1453;42.708;23.282;2023-03-07T04:53:16;17.80;;;11.02;;
2888;SDS011;1453;42.708;23.282;2023-03-07T04:55:43;15.82;;;9.80;;
2888;SDS011;1453;42.708;23.282;2023-03-07T04:58:09;17.37;;;9.40;;
2888;SDS011;1453;42.708;23.282;2023-03-07T05:00:41;16.00;;;10.43;;
2888;SDS011;1453;42.708;23.282;2023-03-07T05:03:09;16.98;;;9.60;;
2888;SDS011;1453;42.708;23.282;2023-03-07T05:05:36;15.35;;;10.65;;
2888;SDS011;1453;42.708;23.282;2023-03-07T05:08:03;24.17;;;10.45;;
2888;SDS011;1453;42.708;23.282;2023-03-07T05:10:30;16.83;;;10.88;;
2888;SDS011;1453;42.708;23.282;2023-03-07T05:12:57;22.33;;;10.90;;
2888;SDS011;1453;42.708;23.282;2023-03-07T05:15:23;16.87;;;10.13;;
2888;SDS011;1453;42.708;23.282;2023-03-07T05:17:49;17.90;;;11.50;;
2888;SDS011;1453;42.708;23.282;2023-03-07T05:20:14;18.40;;;10.87;;
2888;SDS011;1453;42.708;23.282;2023-03-07T05:22:41;21.77;;;12.20;;
2888;SDS011;1453;42.708;23.282;2023-03-07T05:25:07;16.57;;;10.83;;
2888;SDS011;1453;42.708;23.282;2023-03-07T05:27:33;17.90;;;11.30;;
2888;SDS011;1453;42.708;23.282;2023-03-07T05:29:59;19.93;;;12.37;;
2888;SDS011;1453;42.708;23.282;2023-03-07T05:32:24;22.30;;;14.60;;
2888;SDS011;1453;42.708;23.282;2023-03-07T05:34:50;18.63;;;11.40;;
2888;SDS011;1453;42.708;23.282;2023-03-07T05:37:16;18.07;;;11.70;;
2888;SDS011;1453;42.708;23.282;2023-03-07T05:39:42;18.00;;;11.33;;
2888;SDS011;1453;42.708;23.282;2023-03-07T05:42:08;19.57;;;13.13;;
2888;SDS011;1453;42.708;23.282;2023-03-07T05:44:34;23.40;;;13.63;;
2888;SDS011;1453;42.708;23.282;2023-03-07T05:46:59;23.27;;;12.77;;
2888;SDS011;1453;42.708;23.282;2023-03-07T05:49:26;19.70;;;13.17;;
2888;SDS011;1453;42.708;23.282;2023-03-07T05:51:51;20.35;;;12.02;;
2888;SDS011;1453;42.708;23.282;2023-03-07T05:54:17;21.40;;;11.17;;
2888;SDS011;1453;42.708;23.282;2023-03-07T05:56:44;25.95;;;12.45;;
2888;SDS011;1453;42.708;23.282;2023-03-07T05:59:09;21.50;;;11.40;;
2888;SDS011;1453;42.708;23.282;2023-03-07T06:01:39;24.35;;;14.13;;
2888;SDS011;1453;42.708;23.282;2023-03-07T06:04:06;21.88;;;12.93;;
2888;SDS011;1453;42.708;23.282;2023-03-07T06:06:32;23.85;;;14.32;;
2888;SDS011;1453;42.708;23.282;2023-03-07T06:08:58;29.60;;;12.90;;
2888;SDS011;1453;42.708;23.282;2023-03-07T06:11:24;23.87;;;14.33;;
2888;SDS011;1453;42.708;23.282;2023-03-07T06:13:52;22.37;;;13.10;;
2888;SDS011;1453;42.708;23.282;2023-03-07T06:16:19;17.40;;;11.55;;
2888;SDS011;1453;42.708;23.282;2023-03-07T06:18:46;20.58;;;12.45;;
2888;SDS011;1453;42.708;23.282;2023-03-07T06:21:12;25.17;;;14.47;;
2888;SDS011;1453;42.708;23.282;2023-03-07T06:23:41;20.50;;;12.67;;
2888;SDS011;1453;42.708;23.282;2023-03-07T06:26:07;22.07;;;12.60;;
2888;SDS011;1453;42.708;23.282;2023-03-07T06:28:34;23.70;;;12.20;;
2888;SDS011;1453;42.708;23.282;2023-03-07T06:31:05;20.70;;;13.17;;
2888;SDS011;1453;42.708;23.282;2023-03-07T06:33:36;24.70;;;13.67;;
2888;SDS011;1453;42.708;23.282;2023-03-07T06:36:06;20.07;;;11.80;;
2888;SDS011;1453;42.708;23.282;2023-03-07T06:38:35;21.53;;;13.13;;
2888;SDS011;1453;42.708;23.282;2023-03-07T06:41:01;21.90;;;11.90;;
2888;SDS011;1453;42.708;23.282;2023-03-07T06:43:28;23.10;;;13.80;;
2888;SDS011;1453;42.708;23.282;2023-03-07T06:45:54;23.03;;;14.17;;
2888;SDS011;1453;42.708;23.282;2023-03-07T06:48:20;24.77;;;13.20;;
2888;SDS011;1453;42.708;23.282;2023-03-07T06:50:46;22.77;;;12.40;;
2888;SDS011;1453;42.708;23.282;2023-03-07T06:53:12;22.20;;;13.73;;
2888;SDS011;1453;42.708;23.282;2023-03-07T06:55:37;23.40;;;12.17;;
2888;SDS011;1453;42.708;23.282;2023-03-07T06:58:03;17.93;;;12.07;;
2888;SDS011;1453;42.708;23.282;2023-03-07T07:00:29;19.97;;;11.57;;
2888;SDS011;1453;42.708;23.282;2023-03-07T07:02:55;19.23;;;11.87;;
2888;SDS011;1453;42.708;23.282;2023-03-07T07:05:21;16.97;;;10.97;;
2888;SDS011;1453;42.708;23.282;2023-03-07T07:07:47;20.90;;;11.80;;
2888;SDS011;1453;42.708;23.282;2023-03-07T07:10:12;20.30;;;11.93;;
2888;SDS011;1453;42.708;23.282;2023-03-07T07:12:38;28.43;;;11.93;;
2888;SDS011;1453;42.708;23.282;2023-03-07T07:15:04;21.27;;;11.00;;
2888;SDS011;1453;42.708;23.282;2023-03-07T07:17:31;21.90;;;11.70;;
2888;SDS011;1453;42.708;23.282;2023-03-07T07:19:59;20.10;;;11.90;;
2888;SDS011;1453;42.708;23.282;2023-03-07T07:22:29;17.30;;;11.70;;
2888;SDS011;1453;42.708;23.282;2023-03-07T07:24:55;17.27;;;12.13;;
2888;SDS011;1453;42.708;23.282;2023-03-07T07:27:21;15.90;;;10.57;;
2888;SDS011;1453;42.708;23.282;2023-03-07T07:29:47;19.03;;;11.43;;
2888;SDS011;1453;42.708;23.282;2023-03-07T07:32:13;27.30;;;12.63;;
2888;SDS011;1453;42.708;23.282;2023-03-07T07:34:38;18.83;;;10.63;;
2888;SDS011;1453;42.708;23.282;2023-03-07T07:37:04;16.73;;;10.93;;
2888;SDS011;1453;42.708;23.282;2023-03-07T07:39:30;18.53;;;10.37;;
2888;SDS011;1453;42.708;23.282;2023-03-07T07:41:56;16.13;;;11.67;;
2888;SDS011;1453;42.708;23.282;2023-03-07T07:44:22;20.00;;;11.57;;
2888;SDS011;1453;42.708;23.282;2023-03-07T07:46:48;15.20;;;10.33;;
2888;SDS011;1453;42.708;23.282;2023-03-07T07:49:14;16.60;;;10.87;;
2888;SDS011;1453;42.708;23.282;2023-03-07T07:51:40;15.10;;;10.17;;
2888;SDS011;1453;42.708;23.282;2023-03-07T07:54:06;15.03;;;9.67;;
2888;SDS011;1453;42.708;23.282;2023-03-07T07:56:33;16.03;;;9.37;;
2888;SDS011;1453;42.708;23.282;2023-03-07T07:58:59;14.17;;;9.33;;
2888;SDS011;1453;42.708;23.282;2023-03-07T08:01:25;19.40;;;10.17;;
2888;SDS011;1453;42.708;23.282;2023-03-07T08:03:51;18.60;;;11.23;;
2888;SDS011;1453;42.708;23.282;2023-03-07T08:06:18;17.40;;;10.20;;
2888;SDS011;1453;42.708;23.282;2023-03-07T08:08:46;19.57;;;10.20;;
2888;SDS011;1453;42.708;23.282;2023-03-07T08:11:13;19.30;;;10.53;;
2888;SDS011;1453;42.708;23.282;2023-03-07T08:13:40;17.43;;;9.80;;
2888;SDS011;1453;42.708;23.282;2023-03-07T08:16:07;17.60;;;9.63;;
2888;SDS011;1453;42.708;23.282;2023-03-07T08:18:39;13.93;;;9.50;;
2888;SDS011;1453;42.708;23.282;2023-03-07T08:21:06;12.70;;;9.40;;
2888;SDS011;1453;42.708;23.282;2023-03-07T08:23:33;14.23;;;10.27;;
2888;SDS011;1453;42.708;23.282;2023-03-07T08:26:00;14.00;;;9.60;;
2888;SDS011;1453;42.708;23.282;2023-03-07T08:28:31;17.40;;;10.73;;
2888;SDS011;1453;42.708;23.282;2023-03-07T08:30:57;14.43;;;9.80;;
2888;SDS011;1453;42.708;23.282;2023-03-07T08:33:23;19.90;;;10.20;;
2888;SDS011;1453;42.708;23.282;2023-03-07T08:35:49;16.60;;;9.97;;
2888;SDS011;1453;42.708;23.282;2023-03-07T08:38:15;17.97;;;11.43;;
2888;SDS011;1453;42.708;23.282;2023-03-07T08:40:41;25.17;;;11.77;;
2888;SDS011;1453;42.708;23.282;2023-03-07T08:43:06;17.30;;;10.30;;
2888;SDS011;1453;42.708;23.282;2023-03-07T08:45:32;18.77;;;11.30;;
2888;SDS011;1453;42.708;23.282;2023-03-07T08:47:58;18.30;;;11.90;;
2888;SDS011;1453;42.708;23.282;2023-03-07T08:50:25;14.90;;;11.23;;
2888;SDS011;1453;42.708;23.282;2023-03-07T08:52:52;18.43;;;11.77;;
2888;SDS011;1453;42.708;23.282;2023-03-07T08:55:18;14.67;;;11.77;;
2888;SDS011;1453;42.708;23.282;2023-03-07T08:57:44;15.73;;;11.00;;
2888;SDS011;1453;42.708;23.282;2023-03-07T09:00:11;17.40;;;12.20;;
2888;SDS011;1453;42.708;23.282;2023-03-07T09:02:38;20.80;;;12.30;;
2888;SDS011;1453;42.708;23.282;2023-03-07T09:05:04;17.13;;;11.93;;
2888;SDS011;1453;42.708;23.282;2023-03-07T09:07:30;14.67;;;10.63;;
2888;SDS011;1453;42.708;23.282;2023-03-07T09:09:57;21.13;;;10.90;;
2888;SDS011;1453;42.708;23.282;2023-03-07T09:12:23;22.47;;;11.73;;
2888;SDS011;1453;42.708;23.282;2023-03-07T09:14:51;14.77;;;10.90;;
2888;SDS011;1453;42.708;23.282;2023-03-07T09:17:19;24.57;;;11.20;;
2888;SDS011;1453;42.708;23.282;2023-03-07T09:19:44;11.37;;;8.47;;
2888;SDS011;1453;42.708;23.282;2023-03-07T09:22:10;14.13;;;8.80;;
2888;SDS011;1453;42.708;23.282;2023-03-07T09:24:36;13.37;;;8.73;;
2888;SDS011;1453;42.708;23.282;2023-03-07T09:27:02;14.33;;;9.10;;
2888;SDS011;1453;42.708;23.282;2023-03-07T09:29:28;14.87;;;9.80;;
2888;SDS011;1453;42.708;23.282;2023-03-07T09:31:53;14.67;;;10.00;;
2888;SDS011;1453;42.708;23.282;2023-03-07T09:34:19;12.60;;;8.63;;
2888;SDS011;1453;42.708;23.282;2023-03-07T09:36:45;11.70;;;7.60;;
2888;SDS011;1453;42.708;23.282;2023-03-07T09:39:15;13.80;;;8.00;;
2888;SDS011;1453;42.708;23.282;2023-03-07T09:53:24;11.53;;;7.47;;
2888;SDS011;1453;42.708;23.282;2023-03-07T09:56:07;10.77;;;6.70;;
2888;SDS011;1453;42.708;23.282;2023-03-07T09:58:41;7.87;;;5.63;;
2888;SDS011;1453;42.708;23.282;2023-03-07T10:01:11;6.63;;;4.73;;
2888;SDS011;1453;42.708;23.282;2023-03-07T10:06:42;5.33;;;4.43;;
2888;SDS011;1453;42.708;23.282;2023-03-07T10:09:18;5.40;;;4.23;;
2888;SDS011;1453;42.708;23.282;2023-03-07T10:15:04;3.50;;;2.93;;
2888;SDS011;1453;42.708;23.282;2023-03-07T10:20:51;4.00;;;2.60;;
2888;SDS011;1453;42.708;23.282;2023-03-07T10:26:34;3.03;;;2.30;;
2888;SDS011;1453;42.708;23.282;2023-03-07T10:29:26;4.73;;;2.60;;
2888;SDS011;1453;42.708;23.282;2023-03-07T10:34:38;2.90;;;2.47;;
2888;SDS011;1453;42.708;23.282;2023-03-07T10:37:12;5.10;;;2.93;;
2888;SDS011;1453;42.708;23.282;2023-03-07T10:42:19;4.40;;;3.37;;
2888;SDS011;1453;42.708;23.282;2023-03-07T10:44:49;4.57;;;3.90;;
2888;SDS011;1453;42.708;23.282;2023-03-07T10:47:18;3.97;;;2.70;;
2888;SDS011;1453;42.708;23.282;2023-03-07T10:49:46;4.10;;;2.80;;
2888;SDS011;1453;42.708;23.282;2023-03-07T10:58:19;4.43;;;3.83;;
2888;SDS011;1453;42.708;23.282;2023-03-07T11:00:56;4.70;;;3.27;;
2888;SDS011;1453;42.708;23.282;2023-03-07T11:06:24;6.47;;;4.20;;
2888;SDS011;1453;42.708;23.282;2023-03-07T11:08:52;3.83;;;2.97;;
2888;SDS011;1453;42.708;23.282;2023-03-07T11:11:24;3.50;;;2.90;;
2888;SDS011;1453;42.708;23.282;2023-03-07T11:14:10;4.70;;;2.57;;
2888;SDS011;1453;42.708;23.282;2023-03-07T11:16:50;2.97;;;2.20;;
2888;SDS011;1453;42.708;23.282;2023-03-07T11:19:33;3.50;;;2.90;;
2888;SDS011;1453;42.708;23.282;2023-03-07T11:22:19;8.27;;;3.83;;
2888;SDS011;1453;42.708;23.282;2023-03-07T11:25:02;3.87;;;2.40;;
2888;SDS011;1453;42.708;23.282;2023-03-07T11:27:38;6.60;;;2.73;;
2888;SDS011;1453;42.708;23.282;2023-03-07T11:43:52;3.47;;;2.83;;
2888;SDS011;1453;42.708;23.282;2023-03-07T11:47:22;3.33;;;3.03;;
2888;SDS011;1453;42.708;23.282;2023-03-07T11:50:20;2.70;;;2.07;;
2888;SDS011;1453;42.708;23.282;2023-03-07T11:53:08;4.03;;;3.00;;
2888;SDS011;1453;42.708;23.282;2023-03-07T12:01:59;2.80;;;2.10;;
2888;SDS011;1453;42.708;23.282;2023-03-07T12:10:04;2.77;;;2.20;;
2888;SDS011;1453;42.708;23.282;2023-03-07T12:12:46;2.43;;;2.10;;
2888;SDS011;1453;42.708;23.282;2023-03-07T12:15:40;4.90;;;2.43;;
2888;SDS011;1453;42.708;23.282;2023-03-07T12:18:27;3.73;;;2.40;;
2888;SDS011;1453;42.708;23.282;2023-03-07T12:23:58;7.40;;;2.20;;
2888;SDS011;1453;42.708;23.282;2023-03-07T12:31:59;3.30;;;2.57;;
2888;SDS011;1453;42.708;23.282;2023-03-07T12:34:58;4.30;;;3.17;;
2888;SDS011;1453;42.708;23.282;2023-03-07T12:40:56;2.73;;;2.43;;
2888;SDS011;1453;42.708;23.282;2023-03-07T12:43:34;3.07;;;2.10;;
2888;SDS011;1453;42.708;23.282;2023-03-07T12:48:52;3.60;;;2.10;;
2888;SDS011;1453;42.708;23.282;2023-03-07T12:51:40;3.93;;;2.47;;
2888;SDS011;1453;42.708;23.282;2023-03-07T12:57:06;3.77;;;3.40;;
2888;SDS011;1453;42.708;23.282;2023-03-07T12:59:50;7.33;;;2.50;;
2888;SDS011;1453;42.708;23.282;2023-03-07T13:02:28;3.03;;;2.17;;
2888;SDS011;1453;42.708;23.282;2023-03-07T13:04:58;3.77;;;2.40;;
2888;SDS011;1453;42.708;23.282;2023-03-07T13:07:27;4.37;;;2.00;;
2888;SDS011;1453;42.708;23.282;2023-03-07T13:09:58;4.97;;;3.80;;
2888;SDS011;1453;42.708;23.282;2023-03-07T13:12:29;3.10;;;1.73;;
2888;SDS011;1453;42.708;23.282;2023-03-07T13:22:59;3.57;;;2.83;;
2888;SDS011;1453;42.708;23.282;2023-03-07T13:26:00;3.00;;;2.30;;
2888;SDS011;1453;42.708;23.282;2023-03-07T13:28:31;2.57;;;2.30;;
2888;SDS011;1453;42.708;23.282;2023-03-07T13:31:21;4.57;;;2.30;;
2888;SDS011;1453;42.708;23.282;2023-03-07T13:33:53;4.30;;;2.70;;
2888;SDS011;1453;42.708;23.282;2023-03-07T13:36:32;5.00;;;2.50;;
2888;SDS011;1453;42.708;23.282;2023-03-07T13:38:59;2.70;;;2.47;;
2888;SDS011;1453;42.708;23.282;2023-03-07T13:41:45;3.83;;;3.20;;
2888;SDS011;1453;42.708;23.282;2023-03-07T13:44:27;4.67;;;2.10;;
2888;SDS011;1453;42.708;23.282;2023-03-07T13:46:54;5.50;;;2.80;;
2888;SDS011;1453;42.708;23.282;2023-03-07T13:49:32;3.30;;;2.30;;
2888;SDS011;1453;42.708;23.282;2023-03-07T13:54:54;4.27;;;3.30;;
2888;SDS011;1453;42.708;23.282;2023-03-07T13:57:22;3.33;;;2.70;;
2888;SDS011;1453;42.708;23.282;2023-03-07T13:59:55;3.87;;;2.70;;
2888;SDS011;1453;42.708;23.282;2023-03-07T14:02:21;6.07;;;2.80;;
2888;SDS011;1453;42.708;23.282;2023-03-07T14:04:48;3.17;;;2.80;;
2888;SDS011;1453;42.708;23.282;2023-03-07T14:07:29;4.90;;;3.00;;
2888;SDS011;1453;42.708;23.282;2023-03-07T14:10:01;3.23;;;2.67;;
2888;SDS011;1453;42.708;23.282;2023-03-07T14:18:36;4.10;;;2.67;;
2888;SDS011;1453;42.708;23.282;2023-03-07T14:21:28;3.90;;;3.00;;
2888;SDS011;1453;42.708;23.282;2023-03-07T14:27:12;3.23;;;2.90;;
2888;SDS011;1453;42.708;23.282;2023-03-07T14:29:49;4.20;;;3.13;;
2888;SDS011;1453;42.708;23.282;2023-03-07T14:32:22;3.47;;;2.70;;
2888;SDS011;1453;42.708;23.282;2023-03-07T14:34:54;7.00;;;3.83;;
2888;SDS011;1453;42.708;23.282;2023-03-07T14:37:22;3.73;;;2.83;;
2888;SDS011;1453;42.708;23.282;2023-03-07T14:42:55;4.90;;;2.60;;
2888;SDS011;1453;42.708;23.282;2023-03-07T14:45:25;4.33;;;2.60;;
2888;SDS011;1453;42.708;23.282;2023-03-07T14:48:19;4.83;;;2.13;;
2888;SDS011;1453;42.708;23.282;2023-03-07T14:50:55;4.07;;;3.20;;
2888;SDS011;1453;42.708;23.282;2023-03-07T14:53:27;9.70;;;3.40;;
2888;SDS011;1453;42.708;23.282;2023-03-07T14:55:55;4.37;;;3.13;;
2888;SDS011;1453;42.708;23.282;2023-03-07T14:58:23;7.87;;;3.87;;
2888;SDS011;1453;42.708;23.282;2023-03-07T15:01:10;3.53;;;2.67;;
2888;SDS011;1453;42.708;23.282;2023-03-07T15:06:15;6.60;;;3.27;;
2888;SDS011;1453;42.708;23.282;2023-03-07T15:08:44;5.83;;;3.27;;
2888;SDS011;1453;42.708;23.282;2023-03-07T15:11:32;3.03;;;2.27;;
2888;SDS011;1453;42.708;23.282;2023-03-07T15:16:48;4.43;;;2.90;;
2888;SDS011;1453;42.708;23.282;2023-03-07T15:19:38;2.50;;;2.13;;
2888;SDS011;1453;42.708;23.282;2023-03-07T15:22:13;4.73;;;3.40;;
2888;SDS011;1453;42.708;23.282;2023-03-07T15:24:50;5.40;;;3.30;;
2888;SDS011;1453;42.708;23.282;2023-03-07T15:27:26;5.23;;;2.83;;
2888;SDS011;1453;42.708;23.282;2023-03-07T15:29:55;5.30;;;3.10;;
2888;SDS011;1453;42.708;23.282;2023-03-07T15:40:27;8.23;;;3.33;;
2888;SDS011;1453;42.708;23.282;2023-03-07T15:45:44;6.17;;;3.53;;
2888;SDS011;1453;42.708;23.282;2023-03-07T15:48:35;8.50;;;5.10;;
2888;SDS011;1453;42.708;23.282;2023-03-07T15:51:02;5.33;;;3.57;;
2888;SDS011;1453;42.708;23.282;2023-03-07T15:53:32;7.07;;;3.73;;
2888;SDS011;1453;42.708;23.282;2023-03-07T15:56:03;8.80;;;3.80;;
2888;SDS011;1453;42.708;23.282;2023-03-07T15:58:42;3.70;;;2.70;;
2888;SDS011;1453;42.708;23.282;2023-03-07T16:01:18;8.40;;;3.40;;
2888;SDS011;1453;42.708;23.282;2023-03-07T16:03:51;5.57;;;4.27;;
2888;SDS011;1453;42.708;23.282;2023-03-07T16:09:02;7.10;;;4.30;;
2888;SDS011;1453;42.708;23.282;2023-03-07T16:11:30;9.90;;;3.27;;
2888;SDS011;1453;42.708;23.282;2023-03-07T16:13:56;6.97;;;3.50;;
2888;SDS011;1453;42.708;23.282;2023-03-07T16:16:24;5.73;;;3.40;;
2888;SDS011;1453;42.708;23.282;2023-03-07T16:18:53;9.60;;;3.40;;
2888;SDS011;1453;42.708;23.282;2023-03-07T16:21:23;7.83;;;4.40;;
2888;SDS011;1453;42.708;23.282;2023-03-07T16:23:50;6.63;;;4.33;;
2888;SDS011;1453;42.708;23.282;2023-03-07T16:26:17;8.13;;;5.10;;
2888;SDS011;1453;42.708;23.282;2023-03-07T16:28:46;5.70;;;3.60;;
2888;SDS011;1453;42.708;23.282;2023-03-07T16:31:14;5.87;;;3.40;;
2888;SDS011;1453;42.708;23.282;2023-03-07T16:33:42;6.80;;;3.80;;
2888;SDS011;1453;42.708;23.282;2023-03-07T16:36:10;6.57;;;4.13;;
2888;SDS011;1453;42.708;23.282;2023-03-07T16:38:37;4.57;;;3.77;;
2888;SDS011;1453;42.708;23.282;2023-03-07T16:41:09;9.83;;;6.33;;
2888;SDS011;1453;42.708;23.282;2023-03-07T16:43:46;9.47;;;4.90;;
2888;SDS011;1453;42.708;23.282;2023-03-07T16:46:24;12.00;;;5.00;;
2888;SDS011;1453;42.708;23.282;2023-03-07T16:48:52;3.90;;;3.50;;
2888;SDS011;1453;42.708;23.282;2023-03-07T16:51:19;9.50;;;6.80;;
2888;SDS011;1453;42.708;23.282;2023-03-07T16:53:47;9.73;;;6.13;;
2888;SDS011;1453;42.708;23.282;2023-03-07T16:56:18;16.03;;;6.97;;
2888;SDS011;1453;42.708;23.282;2023-03-07T16:58:56;14.30;;;7.80;;
2888;SDS011;1453;42.708;23.282;2023-03-07T17:01:23;9.20;;;5.50;;
2888;SDS011;1453;42.708;23.282;2023-03-07T17:03:49;13.90;;;6.87;;
2888;SDS011;1453;42.708;23.282;2023-03-07T17:06:15;11.77;;;7.60;;
2888;SDS011;1453;42.708;23.282;2023-03-07T17:08:42;13.13;;;8.13;;
2888;SDS011;1453;42.708;23.282;2023-03-07T17:11:27;8.60;;;4.43;;
2888;SDS011;1453;42.708;23.282;2023-03-07T17:13:53;11.90;;;7.33;;
2888;SDS011;1453;42.708;23.282;2023-03-07T17:16:24;12.43;;;7.27;;